createdAt,value
2022-11-25T00:03:25.972Z,3.82
2022-11-25T00:05:27.308Z,3.82
2022-11-25T00:07:28.975Z,3.82
2022-11-25T00:09:30.610Z,3.82
2022-11-25T00:11:31.932Z,3.82
2022-11-25T00:13:33.917Z,3.82
2022-11-25T00:15:35.127Z,3.82
2022-11-25T00:19:38.871Z,3.82
2022-11-25T00:21:40.513Z,3.82
2022-11-25T00:25:43.877Z,3.82
2022-11-25T00:27:45.322Z,3.82
2022-11-25T00:29:47.333Z,3.82
2022-11-25T00:31:48.433Z,3.82
2022-11-25T00:35:51.508Z,3.82
2022-11-25T00:37:53.511Z,3.82
2022-11-25T00:39:55.187Z,3.82
2022-11-25T00:41:56.407Z,3.82
2022-11-25T00:45:58.854Z,3.82
2022-11-25T00:48:00.374Z,3.82
2022-11-25T00:50:01.917Z,3.81
2022-11-25T00:52:03.777Z,3.82
2022-11-25T00:54:05.652Z,3.82
2022-11-25T00:56:07.285Z,3.82
2022-11-25T00:58:08.838Z,3.82
2022-11-25T01:02:11.334Z,3.81
2022-11-25T01:04:12.367Z,3.82
2022-11-25T01:06:14.076Z,3.81
2022-11-25T01:08:15.985Z,3.81
2022-11-25T01:10:17.515Z,3.81
2022-11-25T01:12:18.873Z,3.81
2022-11-25T01:14:20.599Z,3.81
2022-11-25T01:18:23.743Z,3.81
2022-11-25T01:20:24.941Z,3.81
2022-11-25T01:22:26.632Z,3.81
2022-11-25T01:24:28.074Z,3.81
2022-11-25T01:26:29.857Z,3.81
2022-11-25T01:28:31.798Z,3.81
2022-11-25T01:30:35.895Z,3.81
2022-11-25T01:34:36.661Z,3.81
2022-11-25T01:36:37.920Z,3.81
2022-11-25T01:38:39.943Z,3.81
2022-11-25T01:40:41.682Z,3.81
2022-11-25T01:44:44.661Z,3.81
2022-11-25T01:46:46.601Z,3.81
2022-11-25T01:48:47.688Z,3.81
2022-11-25T01:50:49.036Z,3.81
2022-11-25T01:52:50.842Z,3.8
2022-11-25T01:54:52.801Z,3.81
2022-11-25T01:56:53.989Z,3.81
2022-11-25T02:00:57.885Z,3.8
2022-11-25T02:02:59.038Z,3.81
2022-11-25T02:05:01.088Z,3.8
2022-11-25T02:07:03.100Z,3.81
2022-11-25T02:09:04.472Z,3.8
2022-11-25T02:11:05.982Z,3.8
2022-11-25T02:13:07.897Z,3.81
2022-11-25T02:17:10.129Z,3.8
2022-11-25T02:19:11.649Z,3.8
2022-11-25T02:21:13.467Z,3.8
2022-11-25T02:23:15.039Z,3.8
2022-11-25T02:27:17.992Z,3.8
2022-11-25T02:29:19.489Z,3.8
2022-11-25T02:31:21.427Z,3.8
2022-11-25T02:33:22.867Z,3.8
2022-11-25T02:35:24.505Z,3.8
2022-11-25T02:37:26.188Z,3.8
2022-11-25T02:39:27.312Z,3.8
2022-11-25T02:43:30.660Z,3.8
2022-11-25T02:45:32.067Z,3.8
2022-11-25T02:47:33.694Z,3.8
2022-11-25T02:49:34.844Z,3.8
2022-11-25T02:51:36.352Z,3.8
2022-11-25T02:53:38.187Z,3.8
2022-11-25T02:55:39.740Z,3.8
2022-11-25T02:59:42.577Z,3.8
2022-11-25T03:01:44.764Z,3.8
2022-11-25T03:03:46.337Z,3.8
2022-11-25T03:05:47.443Z,3.8
2022-11-25T03:09:49.842Z,3.8
2022-11-25T03:11:50.886Z,3.8
2022-11-25T03:13:52.724Z,3.8
2022-11-25T03:15:53.989Z,3.8
2022-11-25T03:17:55.857Z,3.8
2022-11-25T03:19:57.333Z,3.8
2022-11-25T03:21:59.296Z,3.8
2022-11-25T03:26:02.642Z,3.8
2022-11-25T03:28:03.803Z,3.8
2022-11-25T03:30:05.338Z,3.79
2022-11-25T03:32:09.601Z,3.8
2022-11-25T03:34:08.956Z,3.8
2022-11-25T03:38:12.207Z,3.79
2022-11-25T03:42:15.739Z,3.8
2022-11-25T03:44:17.349Z,3.79
2022-11-25T03:46:19.176Z,3.79
2022-11-25T03:48:21.073Z,3.79
2022-11-25T03:52:24.028Z,3.8
2022-11-25T03:54:25.531Z,3.79
2022-11-25T03:58:28.261Z,3.79
2022-11-25T04:00:29.844Z,3.79
2022-11-25T04:02:31.052Z,3.79
2022-11-25T04:04:32.932Z,3.79
2022-11-25T04:07:18.141Z,3.79
2022-11-25T04:09:19.865Z,3.79
2022-11-25T04:11:21.573Z,3.79
2022-11-25T04:13:22.717Z,3.79
2022-11-25T04:15:24.092Z,3.79
2022-11-25T04:19:26.781Z,3.79
2022-11-25T04:21:28.516Z,3.79
2022-11-25T04:23:30.254Z,3.79
2022-11-25T04:25:31.987Z,3.79
2022-11-25T04:29:35.228Z,3.79
2022-11-25T04:31:36.315Z,3.79
2022-11-25T04:33:37.908Z,3.78
2022-11-25T04:35:39.557Z,3.79
2022-11-25T04:37:41.343Z,3.79
2022-11-25T04:39:42.731Z,3.79
2022-11-25T04:41:44.153Z,3.79
2022-11-25T04:46:06.704Z,3.78
2022-11-25T04:47:48.619Z,3.78
2022-11-25T04:51:52.362Z,3.78
2022-11-25T04:53:54.242Z,3.78
2022-11-25T04:55:55.431Z,3.78
2022-11-25T04:57:56.890Z,3.78
2022-11-25T05:02:00.026Z,3.78
2022-11-25T05:04:01.774Z,3.78
2022-11-25T05:06:03.847Z,3.78
2022-11-25T05:08:05.469Z,3.78
2022-11-25T05:12:08.958Z,3.78
2022-11-25T05:14:10.415Z,3.78
2022-11-25T05:16:11.723Z,3.78
2022-11-25T05:18:12.814Z,3.78
2022-11-25T05:20:14.703Z,3.78
2022-11-25T05:22:16.395Z,3.78
2022-11-25T05:24:18.384Z,3.78
2022-11-25T05:28:21.551Z,3.78
2022-11-25T05:30:23.163Z,3.78
2022-11-25T05:34:26.156Z,3.78
2022-11-25T05:36:27.361Z,3.78
2022-11-25T05:38:28.565Z,3.78
2022-11-25T05:40:29.743Z,3.78
2022-11-25T05:44:32.666Z,3.78
2022-11-25T05:46:34.313Z,3.78
2022-11-25T05:48:35.577Z,3.78
2022-11-25T05:50:37.341Z,3.78
2022-11-25T05:54:40.682Z,3.78
2022-11-25T05:56:42.624Z,3.77
2022-11-25T05:58:43.977Z,3.78
2022-11-25T06:00:45.845Z,3.78
2022-11-25T06:02:47.741Z,3.78
2022-11-25T06:04:49.225Z,3.77
2022-11-25T06:06:50.476Z,3.78
2022-11-25T06:10:53.078Z,3.78
2022-11-25T06:12:54.457Z,3.78
2022-11-25T06:14:56.474Z,3.78
2022-11-25T06:16:58.349Z,3.77
2022-11-25T06:19:00.239Z,3.78
2022-11-25T06:21:01.735Z,3.78
2022-11-25T06:23:03.431Z,3.77
2022-11-25T06:27:06.113Z,3.77
2022-11-25T06:29:07.372Z,3.78
2022-11-25T06:31:08.749Z,3.77
2022-11-25T06:33:09.842Z,3.77
2022-11-25T06:35:10.999Z,3.77
2022-11-25T06:37:12.254Z,3.77
2022-11-25T06:39:13.555Z,3.78
2022-11-25T06:43:16.632Z,3.77
2022-11-25T06:45:18.312Z,3.77
2022-11-25T06:47:20.317Z,3.77
2022-11-25T06:49:21.774Z,3.77
2022-11-25T06:53:25.218Z,3.77
2022-11-25T06:55:26.703Z,3.77
2022-11-25T06:57:28.065Z,3.77
2022-11-25T06:59:29.140Z,3.77
2022-11-25T07:01:30.261Z,3.77
2022-11-25T07:03:32.179Z,3.77
2022-11-25T07:05:34.139Z,3.77
2022-11-25T07:09:36.794Z,3.77
2022-11-25T07:11:38.777Z,3.77
2022-11-25T07:13:40.036Z,3.77
2022-11-25T07:15:41.427Z,3.77
2022-11-25T07:17:42.474Z,3.76
2022-11-25T07:19:44.366Z,3.77
2022-11-25T07:21:45.962Z,3.77
2022-11-25T07:25:49.147Z,3.77
2022-11-25T07:27:50.388Z,3.77
2022-11-25T07:30:10.605Z,3.77
2022-11-25T07:31:54.000Z,3.77
2022-11-25T07:35:56.845Z,3.76
2022-11-25T07:37:58.721Z,3.77
2022-11-25T07:42:01.987Z,3.76
2022-11-25T07:44:03.659Z,3.76
2022-11-25T07:46:05.709Z,3.76
2022-11-25T07:48:07.590Z,3.76
2022-11-25T07:52:11.096Z,3.82
2022-11-25T07:54:12.226Z,3.83
2022-11-25T07:56:13.315Z,3.84
2022-11-25T07:58:15.084Z,3.84
2022-11-25T08:00:16.306Z,3.84
2022-11-25T08:02:17.841Z,3.84
2022-11-25T08:04:20.604Z,3.85
2022-11-25T08:08:20.801Z,3.86
2022-11-25T08:10:22.548Z,3.86
2022-11-25T08:12:23.693Z,3.86
2022-11-25T08:14:24.925Z,3.86
2022-11-25T08:16:26.887Z,3.86
2022-11-25T08:18:28.303Z,3.87
2022-11-25T08:20:29.377Z,3.87
2022-11-25T08:24:32.146Z,3.88
2022-11-25T08:26:33.926Z,3.88
2022-11-25T08:28:35.793Z,3.88
2022-11-25T08:30:36.801Z,3.88
2022-11-25T08:32:38.558Z,3.88
2022-11-25T08:34:40.184Z,3.89
2022-11-25T08:36:46.627Z,3.89
2022-11-25T08:40:44.122Z,3.9
2022-11-25T08:42:45.206Z,3.9
2022-11-25T08:46:47.981Z,3.9
2022-11-25T08:50:51.185Z,3.91
2022-11-25T08:52:52.903Z,3.91
2022-11-25T08:56:55.288Z,3.92
2022-11-25T08:58:57.058Z,3.92
2022-11-25T09:00:58.809Z,3.92
2022-11-25T09:03:01.129Z,3.93
2022-11-25T09:07:02.693Z,3.93
2022-11-25T09:09:04.568Z,3.94
2022-11-25T09:11:05.798Z,3.91
2022-11-25T09:13:07.563Z,3.91
2022-11-25T09:15:09.263Z,3.92
2022-11-25T09:17:10.560Z,3.92
2022-11-25T09:19:12.178Z,3.92
2022-11-25T09:23:14.256Z,3.93
2022-11-25T09:25:15.914Z,3.95
2022-11-25T09:27:17.158Z,3.95
2022-11-25T09:29:18.229Z,3.95
2022-11-25T09:33:20.676Z,3.96
2022-11-25T09:35:22.173Z,3.96
2022-11-25T09:39:25.537Z,3.94
2022-11-25T09:41:27.113Z,3.94
2022-11-25T09:43:28.615Z,3.94
2022-11-25T09:45:30.461Z,3.94
2022-11-25T09:49:33.686Z,3.95
2022-11-25T09:51:34.669Z,3.96
2022-11-25T09:53:35.802Z,3.98
2022-11-25T09:55:36.783Z,3.98
2022-11-25T09:57:38.498Z,3.95
2022-11-25T09:59:39.681Z,3.94
2022-11-25T10:01:40.759Z,3.94
2022-11-25T10:05:43.927Z,3.95
2022-11-25T10:07:45.199Z,3.94
2022-11-25T10:09:46.648Z,3.94
2022-11-25T10:11:47.998Z,3.94
2022-11-25T10:15:51.465Z,3.94
2022-11-25T10:17:53.291Z,3.94
2022-11-25T10:19:54.689Z,3.94
2022-11-25T10:21:55.782Z,3.94
2022-11-25T10:23:57.451Z,3.94
2022-11-25T10:25:59.182Z,3.94
2022-11-25T10:28:00.907Z,3.94
2022-11-25T10:32:03.405Z,3.94
2022-11-25T10:34:04.669Z,3.94
2022-11-25T10:38:06.942Z,3.94
2022-11-25T10:40:08.786Z,3.94
2022-11-25T10:42:10.599Z,3.94
2022-11-25T10:44:12.367Z,3.94
2022-11-25T10:48:15.466Z,3.93
2022-11-25T10:50:17.455Z,3.93
2022-11-25T10:52:19.188Z,3.93
2022-11-25T10:53:03.016Z,3.93
2022-11-25T10:55:04.365Z,3.93
2022-11-25T10:59:06.769Z,3.93
2022-11-25T11:01:08.117Z,3.93
2022-11-25T11:03:09.383Z,3.93
2022-11-25T11:05:11.031Z,3.93
2022-11-25T11:09:13.676Z,3.93
2022-11-25T11:11:15.118Z,3.93
2022-11-25T11:13:16.641Z,3.92
2022-11-25T11:15:17.725Z,3.93
2022-11-25T11:17:19.551Z,3.93
2022-11-25T11:19:20.633Z,3.93
2022-11-25T11:21:21.596Z,3.93
2022-11-25T11:25:24.202Z,3.93
2022-11-25T11:27:25.696Z,3.93
2022-11-25T11:29:27.116Z,3.93
2022-11-25T11:31:28.591Z,3.93
2022-11-25T11:33:29.844Z,3.93
2022-11-25T11:35:31.107Z,3.93
2022-11-25T11:37:32.214Z,3.93
2022-11-25T11:41:35.043Z,3.93
2022-11-25T11:43:36.673Z,3.93
2022-11-25T11:45:38.242Z,3.92
2022-11-25T11:47:40.017Z,3.93
2022-11-25T11:51:43.632Z,3.92
2022-11-25T11:53:44.620Z,3.92
2022-11-25T11:57:47.500Z,3.93
2022-11-25T11:59:49.293Z,3.93
2022-11-25T12:01:51.151Z,3.93
2022-11-25T12:03:54.292Z,3.92
2022-11-25T12:07:55.384Z,3.93
2022-11-25T12:09:56.518Z,3.92
2022-11-25T12:11:58.309Z,3.92
2022-11-25T12:14:00.959Z,3.92
2022-11-25T12:16:01.316Z,3.92
2022-11-25T12:18:03.177Z,3.92
2022-11-25T12:20:04.716Z,3.92
2022-11-25T12:24:07.142Z,3.92
2022-11-25T12:26:08.882Z,3.92
2022-11-25T12:28:10.259Z,3.92
2022-11-25T12:30:11.325Z,3.92
2022-11-25T12:34:14.255Z,3.92
2022-11-25T12:36:15.132Z,3.92
2022-11-25T12:38:16.688Z,3.92
2022-11-25T12:40:18.611Z,3.92
2022-11-25T12:42:20.172Z,3.92
2022-11-25T12:44:21.629Z,3.92
2022-11-25T12:46:22.997Z,3.92
2022-11-25T12:50:25.881Z,3.92
2022-11-25T12:52:27.757Z,3.92
2022-11-25T12:56:29.806Z,3.92
2022-11-25T12:58:31.543Z,3.92
2022-11-25T13:00:41.341Z,3.92
2022-11-25T13:02:33.966Z,3.92
2022-11-25T13:06:36.602Z,3.92
2022-11-25T13:08:38.102Z,3.91
2022-11-25T13:10:39.734Z,3.92
2022-11-25T13:12:41.203Z,3.92
2022-11-25T13:16:43.460Z,3.92
2022-11-25T13:18:44.272Z,3.92
2022-11-25T13:22:46.969Z,3.92
2022-11-25T13:24:48.094Z,3.92
2022-11-25T13:26:49.112Z,3.91
2022-11-25T13:28:51.005Z,3.91
2022-11-25T13:32:53.815Z,3.92
2022-11-25T13:34:55.398Z,3.91
2022-11-25T13:36:56.554Z,3.91
2022-11-25T13:38:58.255Z,3.91
2022-11-25T13:40:59.738Z,3.91
2022-11-25T13:43:00.766Z,3.91
2022-11-25T13:45:02.440Z,3.91
2022-11-25T13:49:04.783Z,3.91
2022-11-25T13:51:11.576Z,3.91
2022-11-25T13:53:08.027Z,3.91
2022-11-25T13:55:09.671Z,3.91
2022-11-25T13:57:10.771Z,3.91
2022-11-25T13:59:12.338Z,3.91
2022-11-25T14:01:13.784Z,3.91
2022-11-25T14:05:17.361Z,3.91
2022-11-25T14:07:19.929Z,3.91
2022-11-25T14:09:19.616Z,3.91
2022-11-25T14:11:20.790Z,3.91
2022-11-25T14:15:23.905Z,3.91
2022-11-25T14:17:25.516Z,3.9
2022-11-25T14:21:28.901Z,3.9
2022-11-25T14:23:30.493Z,3.9
2022-11-25T14:25:32.203Z,3.9
2022-11-25T14:27:33.970Z,3.9
2022-11-25T14:31:37.024Z,3.91
2022-11-25T14:33:37.960Z,3.9
2022-11-25T14:35:43.642Z,3.9
2022-11-25T14:37:41.120Z,3.9
2022-11-25T14:39:42.293Z,3.9
2022-11-25T14:41:43.904Z,3.9
2022-11-25T14:43:44.923Z,3.9
2022-11-25T14:47:47.902Z,3.9
2022-11-25T14:50:00.007Z,3.9
2022-11-25T14:51:51.041Z,3.9
2022-11-25T14:53:52.097Z,3.9
2022-11-25T14:57:55.564Z,3.9
2022-11-25T14:59:56.795Z,3.9
2022-11-25T15:04:00.387Z,3.9
2022-11-25T15:06:01.467Z,3.9
2022-11-25T15:08:02.590Z,3.9
2022-11-25T15:10:03.497Z,3.9
2022-11-25T15:14:06.685Z,3.9
2022-11-25T15:16:08.243Z,3.9
2022-11-25T15:20:10.825Z,3.9
2022-11-25T15:22:22.866Z,3.9
2022-11-25T15:24:14.039Z,3.9
2022-11-25T15:26:15.355Z,3.9
2022-11-25T15:30:18.474Z,3.9
2022-11-25T15:32:20.259Z,3.89
2022-11-25T15:34:21.693Z,3.9
2022-11-25T15:36:22.814Z,3.9
2022-11-25T15:40:25.706Z,3.9
2022-11-25T15:42:26.758Z,3.89
2022-11-25T15:44:28.492Z,3.89
2022-11-25T15:46:30.195Z,3.9
2022-11-25T15:48:31.771Z,3.89
2022-11-25T15:50:33.197Z,3.9
2022-11-25T15:52:34.450Z,3.89
2022-11-25T15:56:37.368Z,3.89
2022-11-25T15:58:39.159Z,3.89
2022-11-25T16:00:40.380Z,3.89
2022-11-25T16:02:41.505Z,3.89
2022-11-25T16:04:42.971Z,3.9
2022-11-25T16:06:44.855Z,3.89
2022-11-25T16:08:46.272Z,3.89
2022-11-25T16:12:49.278Z,3.89
2022-11-25T16:14:50.625Z,3.89
2022-11-25T16:16:52.142Z,3.89
2022-11-25T16:18:53.516Z,3.89
2022-11-25T16:20:55.452Z,3.89
2022-11-25T16:22:56.554Z,3.89
2022-11-25T16:25:02.022Z,3.88
2022-11-25T16:29:00.843Z,3.89
2022-11-25T16:31:01.960Z,3.88
2022-11-25T16:33:03.343Z,3.88
2022-11-25T16:35:04.807Z,3.88
2022-11-25T16:39:07.248Z,3.88
2022-11-25T16:41:08.547Z,3.89
2022-11-25T16:43:09.869Z,3.89
2022-11-25T16:45:11.702Z,3.88
2022-11-25T16:47:12.852Z,3.88
2022-11-25T16:49:14.755Z,3.88
2022-11-25T16:51:16.223Z,3.88
2022-11-25T16:55:18.913Z,3.88
2022-11-25T16:57:19.989Z,3.88
2022-11-25T16:59:21.683Z,3.88
2022-11-25T17:01:23.574Z,3.88
2022-11-25T17:03:24.606Z,3.88
2022-11-25T17:05:25.767Z,3.88
2022-11-25T17:07:33.821Z,3.88
2022-11-25T17:11:29.471Z,3.88
2022-11-25T17:13:30.989Z,3.88
2022-11-25T17:17:34.407Z,3.88
2022-11-25T17:21:37.204Z,3.88
2022-11-25T17:23:38.523Z,3.88
2022-11-25T17:25:39.945Z,3.88
2022-11-25T17:27:41.363Z,3.88
2022-11-25T17:29:43.250Z,3.88
2022-11-25T17:31:44.885Z,3.88
2022-11-25T17:33:46.684Z,3.88
2022-11-25T17:37:49.389Z,3.88
2022-11-25T17:38:33.235Z,3.88
2022-11-25T17:40:34.280Z,3.88
2022-11-25T17:42:35.667Z,3.88
2022-11-25T17:44:37.503Z,3.88
2022-11-25T17:48:39.858Z,3.88
2022-11-25T17:50:41.256Z,3.88
2022-11-25T17:52:42.938Z,3.88
2022-11-25T17:54:44.124Z,3.88
2022-11-25T17:58:46.317Z,3.88
2022-11-25T18:00:47.312Z,3.88
2022-11-25T18:04:50.243Z,3.88
2022-11-25T18:06:52.098Z,3.87
2022-11-25T18:08:53.559Z,3.87
2022-11-25T18:10:55.427Z,3.87
2022-11-25T18:14:57.968Z,3.87
2022-11-25T18:16:59.639Z,3.87
2022-11-25T18:19:01.409Z,3.87
2022-11-25T18:21:02.495Z,3.87
2022-11-25T18:23:03.627Z,3.87
2022-11-25T18:25:08.187Z,3.87
2022-11-25T18:27:06.612Z,3.87
2022-11-25T18:31:09.587Z,3.87
2022-11-25T18:33:10.939Z,3.87
2022-11-25T18:35:12.210Z,3.87
2022-11-25T18:37:13.312Z,3.87
2022-11-25T18:39:14.791Z,3.87
2022-11-25T18:41:15.949Z,3.86
2022-11-25T18:43:17.628Z,3.87
2022-11-25T18:47:20.173Z,3.87
2022-11-25T18:49:21.356Z,3.87
2022-11-25T18:51:22.558Z,3.87
2022-11-25T18:53:24.441Z,3.86
2022-11-25T18:57:27.519Z,3.87
2022-11-25T18:59:29.284Z,3.86
2022-11-25T19:03:31.650Z,3.86
2022-11-25T19:05:33.257Z,3.86
2022-11-25T19:07:34.913Z,3.86
2022-11-25T19:09:35.994Z,3.86
2022-11-25T19:13:38.958Z,3.86
2022-11-25T19:15:40.787Z,3.87
2022-11-25T19:17:42.323Z,3.86
2022-11-25T19:19:43.556Z,3.86
2022-11-25T19:21:45.120Z,3.86
2022-11-25T19:23:46.233Z,3.86
2022-11-25T19:25:48.160Z,3.86
2022-11-25T19:29:50.566Z,3.86
2022-11-25T19:31:51.597Z,3.86
2022-11-25T19:33:52.516Z,3.86
2022-11-25T19:35:53.792Z,3.86
2022-11-25T19:39:56.556Z,3.86
2022-11-25T19:41:58.485Z,3.86
2022-11-25T19:43:59.847Z,3.86
2022-11-25T19:46:01.166Z,3.86
2022-11-25T19:48:02.801Z,3.86
2022-11-25T19:50:04.292Z,3.86
2022-11-25T19:52:05.349Z,3.86
2022-11-25T19:56:08.177Z,3.86
2022-11-25T19:58:10.010Z,3.86
2022-11-25T20:02:12.960Z,3.86
2022-11-25T20:04:14.594Z,3.86
2022-11-25T20:06:16.471Z,3.86
2022-11-25T20:08:17.633Z,3.86
2022-11-25T20:12:20.685Z,3.86
2022-11-25T20:14:22.554Z,3.86
2022-11-25T20:16:33.341Z,3.86
2022-11-25T20:18:26.251Z,3.85
2022-11-25T20:22:29.600Z,3.85
2022-11-25T20:24:31.328Z,3.85
2022-11-25T20:26:32.473Z,3.86
2022-11-25T20:28:34.144Z,3.85
2022-11-25T20:30:35.323Z,3.86
2022-11-25T20:32:36.815Z,3.85
2022-11-25T20:34:42.007Z,3.85
2022-11-25T20:38:41.708Z,3.85
2022-11-25T20:40:43.504Z,3.85
2022-11-25T20:44:45.820Z,3.85
2022-11-25T20:46:47.447Z,3.85
2022-11-25T20:48:48.844Z,3.85
2022-11-25T20:50:50.203Z,3.85
2022-11-25T20:54:52.883Z,3.85
2022-11-25T20:56:54.383Z,3.85
2022-11-25T20:58:55.905Z,3.85
2022-11-25T21:00:57.860Z,3.85
2022-11-25T21:04:59.567Z,3.85
2022-11-25T21:07:01.157Z,3.85
2022-11-25T21:09:02.992Z,3.85
2022-11-25T21:11:03.976Z,3.85
2022-11-25T21:13:05.272Z,3.85
2022-11-25T21:15:06.552Z,3.85
2022-11-25T21:17:07.682Z,3.85
2022-11-25T21:21:10.675Z,3.85
2022-11-25T21:23:12.038Z,3.85
2022-11-25T21:25:13.846Z,3.85
2022-11-25T21:27:15.169Z,3.85
2022-11-25T21:29:17.042Z,3.85
2022-11-25T21:31:18.788Z,3.84
2022-11-25T21:33:20.136Z,3.84
2022-11-25T21:37:23.648Z,3.84
2022-11-25T21:39:25.350Z,3.84
2022-11-25T21:41:27.341Z,3.84
2022-11-25T21:43:29.141Z,3.84
2022-11-25T21:45:30.839Z,3.84
2022-11-25T21:47:32.482Z,3.84
2022-11-25T21:49:34.427Z,3.84
2022-11-25T21:53:37.723Z,3.84
2022-11-25T21:55:39.323Z,3.84
2022-11-25T21:57:41.122Z,3.84
2022-11-25T21:59:42.558Z,3.84
2022-11-25T22:03:45.086Z,3.84
2022-11-25T22:05:46.713Z,3.84
2022-11-25T22:07:48.411Z,3.84
2022-11-25T22:09:49.994Z,3.84
2022-11-25T22:11:51.664Z,3.84
2022-11-25T22:13:52.757Z,3.84
2022-11-25T22:15:54.769Z,3.84
2022-11-25T22:19:58.132Z,3.84
2022-11-25T22:21:59.639Z,3.84
2022-11-25T22:24:01.271Z,3.84
2022-11-25T22:26:02.711Z,3.84
2022-11-25T22:28:04.105Z,3.84
2022-11-25T22:30:05.638Z,3.84
2022-11-25T22:32:12.515Z,3.84
2022-11-25T22:36:10.022Z,3.84
2022-11-25T22:38:11.030Z,3.84
2022-11-25T22:40:13.000Z,3.84
2022-11-25T22:42:14.005Z,3.84
2022-11-25T22:46:16.889Z,3.84
2022-11-25T22:48:18.650Z,3.84
2022-11-25T22:52:21.451Z,3.84
2022-11-25T22:54:23.006Z,3.84
2022-11-25T22:56:24.100Z,3.84
2022-11-25T22:58:25.711Z,3.83
2022-11-25T23:02:28.271Z,3.84
2022-11-25T23:04:29.406Z,3.83
2022-11-25T23:06:31.156Z,3.83
2022-11-25T23:08:32.304Z,3.83
2022-11-25T23:10:33.896Z,3.83
2022-11-25T23:12:35.614Z,3.83
2022-11-25T23:14:37.632Z,3.83
2022-11-25T23:18:40.584Z,3.83
2022-11-25T23:20:41.973Z,3.83
2022-11-25T23:22:43.578Z,3.83
2022-11-25T23:24:44.625Z,3.83
2022-11-25T23:28:47.782Z,3.83
2022-11-25T23:30:49.596Z,3.83
2022-11-25T23:34:52.180Z,3.83
2022-11-25T23:36:53.588Z,3.83
2022-11-25T23:38:54.590Z,3.83
2022-11-25T23:40:55.652Z,3.83
2022-11-25T23:44:59.420Z,3.83
2022-11-25T23:47:00.384Z,3.83
2022-11-25T23:51:02.849Z,3.82
2022-11-25T23:53:03.962Z,3.83
2022-11-25T23:55:04.988Z,3.82
2022-11-25T23:57:06.808Z,3.83
